Point Reyes Station, CA (94956)

4:21 AM PDT on June 23, 2017 (GMT -0700)
Above Inverness Park | | Change Station

Elev 280 ft 38.07 °N, 122.83 °W | Updated 4 seconds ago

Partly Cloudy
Partly Cloudy
55.3 °F
Feels Like 55.3 °F
N
0.0
Wind Variable Wind from West

Today
High -- | Low -- °F
--% Chance of Precip.
Yesterday
High -- | Low -- °F
Precip. -- in
Pressure 29.85 in
Visibility 10.0 miles
Clouds Mostly Cloudy 300 ft
Mostly Cloudy 2100 ft
Overcast 2600 ft
Dew Point 51 °F
Humidity 86%
Rainfall 0.00 in
Snow Depth Not available.
5:49 AM 8:37 PM
Waning Crescent, 1% visible
METAR KO69 231115Z AUTO 29008KT 10SM BKN003 BKN021 OVC026 13/13 A2985 RMK A01
Pressure 29.85 in
Visibility 10.0 miles
Clouds Mostly Cloudy 300 ft
Mostly Cloudy 2100 ft
Overcast 2600 ft
Dew Point 51 °F
Humidity 86%
Rainfall 0.00 in
Snow Depth Not available.
5:49 AM 8:37 PM
Waning Crescent, 1% visible
METAR KO69 231115Z AUTO 29008KT 10SM BKN003 BKN021 OVC026 13/13 A2985 RMK A01

Get Severe Weather Alerts

Thanks for signing up!

Be on the lookout for a verification email in your inbox.

You'll start receiving the daily forecast at 6 AM.

×

10-Day Weather Forecast

Almanac

Astronomy

Jun. 23, 2017 Rise Set
Actual Time
Civil Twilight
Nautical Twilight
Astronomical Twilight
Moon
Length of Visible Light
Length of Day
Tomorrow will be .
, % of the Moon is Illuminated

Today's Extremes

State Highs State Lows

Community

WunderPhotos

Category 6

Welcome to Category 6. This is the collective home for Weather Underground's featured writeups by Dr. Jeff Masters (right), Bob Henson (left), Chris Burt, and other regular contributors.

Nearby

Air Quality

  Air Quality AQ Index Pollutant
Not available.

Snow Depth

Station Depth Elevation

Earthquake Activity

City Distance Mag. Time & Date
Minimum magnitude displayed is 2.5.

Coastal Water Temperatures

Place Temperature

Stations

Nearby Weather Stations

Station Location Temp. Windchill Dew Point Humidity Wind Precip. Elev Updated Type
                   

Watches & Warnings

There are currently no watches in effect.